College Springs, IA (51637)

4:09 PM CDT on August 23, 2016 (GMT -0500)
NFS-2311 Maple Ave | | Change Station

Elev 1181 ft 40.71 °N, 95.13 °W | Updated 9 minutes ago

Partly Cloudy
Partly Cloudy
80.1 °F
Feels Like 85 °F
N
0.0
Wind Variable Wind from SSE
Gusts 0.0 mph

Today
High -- | Low -- °F
--% Chance of Precip.
Yesterday
High -- | Low -- °F
Precip. -- in
Pressure 29.89 in
Visibility 10.0 miles
Clouds Few 2700 ft
Heat Index 85 °F
Dew Point 74 °F
Humidity 82%
Rainfall 0.00 in
Snow Depth Not available.
6:39 AM 8:05 PM
Waning Gibbous, 64% visible
METAR KSDA 232055Z AUTO 15018KT 10SM FEW027 29/M27 A2989 RMK AO2
Pressure 29.89 in
Visibility 10.0 miles
Clouds Few 2700 ft
Heat Index 85 °F
Dew Point 74 °F
Humidity 82%
Rainfall 0.00 in
Snow Depth Not available.
6:39 AM 8:05 PM
Waning Gibbous, 64% visible
METAR KSDA 232055Z AUTO 15018KT 10SM FEW027 29/M27 A2989 RMK AO2

10-Day Weather Forecast

Almanac

Astronomy

Aug. 23, 2016 Rise Set
Actual Time
Civil Twilight
Nautical Twilight
Astronomical Twilight
Moon
Length of Visible Light
Length of Day
Tomorrow will be .
, % of the Moon is Illuminated

Today's Extremes

State Highs State Lows

Community

WunderPhotos

Upload Photos

1,934,455 photos uploaded!

WunderBlog® & News

Nearby

Air Quality

  Air Quality AQ Index Pollutant
Not available.

Snow Depth

Station Depth Elevation

Earthquake Activity

City Distance Mag. Time & Date
Minimum magnitude displayed is 2.5.

Coastal Water Temperatures

Place Temperature

Stations

Nearby Weather Stations

Station Location Temp. Windchill Dew Point Humidity Wind Precip. Elev Updated Type
                   

Watches & Warnings

There are currently no watches in effect.